createdAt,value
2023-10-15T00:04:24.516Z,7.49
2023-10-15T00:09:28.192Z,7.48
2023-10-15T00:14:32.610Z,7.48
2023-10-15T00:19:36.623Z,7.46
2023-10-15T00:24:41.912Z,7.47
2023-10-15T00:29:45.807Z,7.45
2023-10-15T00:34:51.168Z,7.43
2023-10-15T00:39:55.812Z,7.43
2023-10-15T00:44:59.248Z,7.41
2023-10-15T00:50:09.307Z,7.39
2023-10-15T00:55:18.231Z,7.40
2023-10-15T01:00:40.226Z,7.51
2023-10-15T01:05:54.944Z,7.44
2023-10-15T01:11:21.855Z,7.41
2023-10-15T01:16:29.543Z,7.45
2023-10-15T01:21:34.082Z,7.33
2023-10-15T01:26:40.730Z,7.23
2023-10-15T01:31:52.580Z,7.18
2023-10-15T01:36:58.778Z,7.08
2023-10-15T01:42:06.433Z,7.02
2023-10-15T01:47:10.073Z,6.96
2023-10-15T01:52:22.607Z,6.92
2023-10-15T01:57:26.280Z,6.85
2023-10-15T02:02:31.077Z,6.82
2023-10-15T02:07:36.672Z,6.87
2023-10-15T02:12:39.957Z,6.91
2023-10-15T02:17:44.978Z,6.89
2023-10-15T02:22:48.432Z,6.86
2023-10-15T02:27:52.069Z,6.86
2023-10-15T02:32:55.384Z,6.86
2023-10-15T02:38:01.052Z,6.84
2023-10-15T02:43:07.975Z,6.87
2023-10-15T02:48:21.373Z,6.87
2023-10-15T02:53:25.138Z,6.85
2023-10-15T02:58:30.043Z,6.86
2023-10-15T03:03:36.122Z,6.84
2023-10-15T03:08:49.228Z,6.79
2023-10-15T03:13:56.868Z,6.74
2023-10-15T03:19:19.471Z,6.71
2023-10-15T03:24:24.189Z,6.74
2023-10-15T03:29:28.267Z,6.73
2023-10-15T03:34:37.524Z,6.72
2023-10-15T03:39:41.078Z,6.67
2023-10-15T03:44:48.631Z,6.64
2023-10-15T03:49:53.151Z,6.61
2023-10-15T03:54:57.493Z,6.61
2023-10-15T04:00:02.003Z,6.60
2023-10-15T04:05:10.178Z,6.57
2023-10-15T04:10:14.728Z,6.53
2023-10-15T04:15:18.980Z,6.50
2023-10-15T04:20:43.081Z,6.52
2023-10-15T04:25:49.243Z,6.50
2023-10-15T04:30:53.424Z,6.49
2023-10-15T04:35:58.026Z,6.57
2023-10-15T04:41:04.962Z,6.79
2023-10-15T04:46:09.394Z,7.00
2023-10-15T04:51:14.605Z,7.17
2023-10-15T04:56:18.552Z,7.32
2023-10-15T05:01:22.012Z,7.45
2023-10-15T05:06:25.939Z,7.57
2023-10-15T05:11:29.789Z,7.67
2023-10-15T05:16:33.188Z,7.77
2023-10-15T05:21:36.498Z,7.87
2023-10-15T05:26:39.867Z,7.96
2023-10-15T05:31:46.392Z,8.04
2023-10-15T05:36:50.131Z,8.10
2023-10-15T05:41:53.795Z,8.16
2023-10-15T05:46:57.329Z,8.24
2023-10-15T05:52:01.235Z,8.35
2023-10-15T05:57:07.394Z,8.46
2023-10-15T06:02:10.790Z,8.53
2023-10-15T06:07:17.505Z,8.64
2023-10-15T06:12:20.916Z,8.84
2023-10-15T06:17:24.399Z,9.12
2023-10-15T06:22:27.952Z,9.46
2023-10-15T06:27:31.311Z,9.86
2023-10-15T06:32:35.883Z,10.80
2023-10-15T06:37:40.605Z,12.90
2023-10-15T06:42:45.282Z,15.32
2023-10-15T06:47:50.781Z,16.54
2023-10-15T06:52:54.791Z,17.87
2023-10-15T06:57:59.460Z,18.63
2023-10-15T07:03:02.943Z,18.07
2023-10-15T07:08:07.656Z,16.76
2023-10-15T07:13:11.769Z,15.00
2023-10-15T07:18:15.238Z,13.88
2023-10-15T07:23:18.654Z,13.22
2023-10-15T07:28:23.837Z,12.82
2023-10-15T07:33:27.231Z,12.77
2023-10-15T07:38:30.702Z,13.00
2023-10-15T07:43:34.071Z,13.17
2023-10-15T07:48:37.889Z,13.90
2023-10-15T07:53:41.267Z,14.05
2023-10-15T07:58:44.766Z,13.75
2023-10-15T08:03:48.351Z,13.57
2023-10-15T08:08:52.191Z,13.31
2023-10-15T08:13:55.655Z,13.54
2023-10-15T08:19:00.561Z,14.49
2023-10-15T08:24:05.723Z,13.64
2023-10-15T08:29:11.771Z,13.64
2023-10-15T08:34:16.530Z,14.07
2023-10-15T08:39:20.302Z,14.49
2023-10-15T08:44:26.416Z,15.34
2023-10-15T08:49:39.202Z,15.41
2023-10-15T08:54:47.149Z,17.36
2023-10-15T08:59:55.117Z,18.74
2023-10-15T09:04:58.605Z,19.68
2023-10-15T09:10:02.461Z,18.39
2023-10-15T09:15:17.569Z,16.73
2023-10-15T09:20:28.072Z,15.31
2023-10-15T09:25:31.745Z,14.35
2023-10-15T09:30:35.108Z,13.87
2023-10-15T09:35:38.480Z,13.73
2023-10-15T09:40:45.278Z,13.67
2023-10-15T09:45:48.745Z,13.73
2023-10-15T09:50:55.130Z,13.80
2023-10-15T09:55:59.819Z,13.83
2023-10-15T10:01:10.954Z,13.77
2023-10-15T10:06:50.141Z,13.53
2023-10-15T10:12:08.556Z,13.33
2023-10-15T10:17:14.009Z,13.20
2023-10-15T10:22:36.086Z,13.25
2023-10-15T10:27:43.400Z,13.13
2023-10-15T10:32:46.834Z,13.18
2023-10-15T10:38:10.626Z,13.29
2023-10-15T10:43:28.676Z,13.36
2023-10-15T10:48:40.780Z,13.32
2023-10-15T10:53:59.335Z,13.27
2023-10-15T10:59:03.008Z,13.35
2023-10-15T11:04:11.887Z,13.19
2023-10-15T11:09:21.191Z,12.87
2023-10-15T11:14:31.360Z,12.60
2023-10-15T11:19:34.909Z,12.58
2023-10-15T11:24:39.235Z,12.58
2023-10-15T11:29:42.786Z,12.48
2023-10-15T11:34:46.535Z,12.60
2023-10-15T11:39:52.692Z,12.61
2023-10-15T11:44:58.214Z,12.60
2023-10-15T11:50:01.726Z,12.69
2023-10-15T11:55:07.633Z,12.96
2023-10-15T12:00:11.858Z,13.17
2023-10-15T12:05:15.356Z,13.05
2023-10-15T12:10:18.664Z,12.89
2023-10-15T12:15:22.072Z,12.81
2023-10-15T12:20:26.576Z,12.90
2023-10-15T12:25:30.034Z,12.82
2023-10-15T12:30:34.123Z,12.65
2023-10-15T12:35:38.089Z,12.61
2023-10-15T12:40:41.737Z,12.59
2023-10-15T12:45:50.575Z,12.58
2023-10-15T12:50:54.212Z,12.49
2023-10-15T12:55:58.367Z,12.33
2023-10-15T13:01:02.226Z,12.39
2023-10-15T13:06:05.726Z,12.47
2023-10-15T13:11:09.587Z,12.27
2023-10-15T13:16:13.117Z,12.04
2023-10-15T13:21:16.785Z,11.92
2023-10-15T13:26:20.274Z,11.78
2023-10-15T13:31:24.839Z,11.59
2023-10-15T13:36:29.280Z,11.51
2023-10-15T13:41:32.659Z,11.50
2023-10-15T13:46:37.288Z,11.40
2023-10-15T13:51:41.654Z,11.18
2023-10-15T13:56:45.283Z,11.05
2023-10-15T14:01:48.919Z,11.14
2023-10-15T14:06:53.539Z,11.23
2023-10-15T14:11:57.165Z,11.14
2023-10-15T14:17:00.680Z,11.09
2023-10-15T14:22:05.857Z,11.09
2023-10-15T14:27:09.211Z,10.96
2023-10-15T14:32:13.631Z,10.75
2023-10-15T14:37:17.769Z,10.50
2023-10-15T14:42:22.013Z,10.24
2023-10-15T14:47:25.537Z,9.99
2023-10-15T14:52:29.150Z,9.78
2023-10-15T14:57:33.539Z,9.60
2023-10-15T15:02:37.273Z,9.47
2023-10-15T15:07:44.221Z,9.38
2023-10-15T15:12:47.735Z,9.26
2023-10-15T15:17:51.389Z,9.15
2023-10-15T15:22:56.372Z,8.98
2023-10-15T15:27:59.732Z,8.76
2023-10-15T15:33:03.258Z,8.52
2023-10-15T15:38:07.834Z,8.28
2023-10-15T15:43:11.311Z,8.06
2023-10-15T15:48:14.669Z,7.82
2023-10-15T15:53:18.181Z,7.59
2023-10-15T15:58:21.573Z,7.37
2023-10-15T16:03:25.361Z,7.21
2023-10-15T16:08:31.489Z,7.07
2023-10-15T16:13:34.832Z,6.96
2023-10-15T16:18:38.235Z,6.87
2023-10-15T16:23:41.563Z,6.82
2023-10-15T16:28:45.445Z,6.79
2023-10-15T16:33:48.778Z,6.79
2023-10-15T16:38:52.289Z,6.78
2023-10-15T16:43:56.771Z,6.78
2023-10-15T16:49:00.500Z,6.76
2023-10-15T16:54:03.957Z,6.73
2023-10-15T16:59:07.626Z,6.69
2023-10-15T17:04:11.388Z,6.65
2023-10-15T17:09:14.827Z,6.62
2023-10-15T17:14:18.161Z,6.63
2023-10-15T17:19:21.536Z,6.73
2023-10-15T17:24:24.867Z,6.88
2023-10-15T17:29:28.446Z,7.07
2023-10-15T17:34:32.840Z,7.25
2023-10-15T17:39:36.344Z,7.42
2023-10-15T17:44:39.711Z,7.50
2023-10-15T17:49:43.424Z,7.50
2023-10-15T17:54:46.984Z,7.48
2023-10-15T17:59:50.442Z,7.49
2023-10-15T18:04:55.698Z,7.57
2023-10-15T18:09:59.156Z,7.67
2023-10-15T18:15:02.696Z,7.78
2023-10-15T18:20:07.335Z,7.88
2023-10-15T18:25:10.674Z,7.98
2023-10-15T18:30:14.279Z,8.07
2023-10-15T18:35:18.158Z,8.13
2023-10-15T18:40:21.552Z,8.18
2023-10-15T18:45:25.060Z,8.16
2023-10-15T18:50:28.756Z,8.13
2023-10-15T18:55:32.549Z,8.10
2023-10-15T19:00:36.203Z,8.11
2023-10-15T19:05:40.254Z,8.17
2023-10-15T19:10:43.622Z,8.22
2023-10-15T19:15:58.761Z,8.26
2023-10-15T19:21:02.234Z,8.24
2023-10-15T19:26:07.517Z,8.25
2023-10-15T19:31:10.920Z,8.28
2023-10-15T19:36:15.640Z,8.25
2023-10-15T19:41:19.053Z,8.16
2023-10-15T19:46:23.156Z,8.05
2023-10-15T19:51:26.757Z,7.94
2023-10-15T19:56:30.286Z,7.83
2023-10-15T20:01:35.273Z,7.70
2023-10-15T20:06:38.806Z,7.62
2023-10-15T20:11:42.283Z,7.52
2023-10-15T20:16:45.664Z,7.41
2023-10-15T20:21:52.167Z,7.39
2023-10-15T20:26:55.565Z,7.44
2023-10-15T20:31:58.908Z,7.45
2023-10-15T20:37:02.277Z,7.45
2023-10-15T20:42:05.762Z,7.51
2023-10-15T20:47:09.715Z,7.57
2023-10-15T20:52:13.087Z,7.62
2023-10-15T20:57:16.477Z,7.66
2023-10-15T21:02:19.785Z,7.69
2023-10-15T21:07:24.170Z,7.71
2023-10-15T21:12:27.612Z,7.73
2023-10-15T21:17:31.015Z,7.73
2023-10-15T21:22:35.053Z,7.74
2023-10-15T21:27:39.438Z,7.73
2023-10-15T21:32:42.906Z,7.71
2023-10-15T21:37:46.562Z,7.68
2023-10-15T21:42:50.039Z,7.66
2023-10-15T21:47:53.532Z,7.62
2023-10-15T21:52:58.180Z,7.60
2023-10-15T21:58:02.028Z,7.56
2023-10-15T22:03:05.913Z,7.53
2023-10-15T22:08:11.237Z,7.49
2023-10-15T22:13:19.811Z,7.46
2023-10-15T22:18:28.663Z,7.38
2023-10-15T22:23:32.037Z,7.30
2023-10-15T22:28:36.058Z,7.20
2023-10-15T22:33:39.350Z,7.07
2023-10-15T22:38:43.022Z,6.89
2023-10-15T22:43:46.275Z,6.72
2023-10-15T22:48:50.858Z,6.59
2023-10-15T22:53:54.253Z,6.47
2023-10-15T22:58:57.645Z,6.43
2023-10-15T23:04:01.181Z,6.49
2023-10-15T23:09:05.007Z,6.56
2023-10-15T23:14:11.890Z,6.58
2023-10-15T23:19:17.171Z,6.63
2023-10-15T23:24:20.887Z,6.67
2023-10-15T23:29:26.502Z,6.72
2023-10-15T23:34:29.904Z,6.76
2023-10-15T23:39:33.343Z,6.77
2023-10-15T23:44:37.972Z,6.79
2023-10-15T23:49:41.355Z,6.80
2023-10-15T23:54:52.536Z,6.80
2023-10-15T23:59:56.720Z,6.78
